Hang Nadim Airport
WIDD : now visible

Airfield :











YOU CAN JOIN US ON...

 
LOGIN :

Register | Disclaimer

   EN    FR    IT 

 









Legend :    VFR   Marginal VFR   IFR   Intensive IFR   Very Intensive IFR
Visi :
Ceiling :
>= 8 km
>= 3000ft
5 to 8 km
1000 to 3000 ft
1500m to 5 km
500 to 1000 ft
800 to 1500m
200 to 500 ft
< 800m
< 200 ft
Symbols :   Thunderstorms  Fog  Heavy snow  Heavy precipitations  Wind > 20 kt






- Airport Elevation : 126 ft
- IATA code : BTH


WIDD - Hang Nadim

CURRENT METAR :
  • 280330Z 15007KT 9999 FEW014 32/26 Q1011 NOSIG

EXPIRED METARs :
  • 280300Z 17010KT 9999 FEW014 32/26 Q1011 NOSIG
  • 280230Z 14008KT 9999 FEW014 32/27 Q1011 NOSIG
  • 280200Z 15006KT 8000 FEW014 31/27 Q1011 NOSIG
  • 280130Z 16007KT 8000 FEW014 30/27 Q1011 NOSIG
  • 280100Z 17005KT 7000 FEW014 29/27 Q1011 NOSIG
  • 280030Z 19003KT 7000 FEW014 29/27 Q1011 NOSIG
  • 280000Z 00000KT 7000 FEW014 28/27 Q1011 NOSIG
  • 272330Z 23002KT 8000 FEW014 28/27 Q1010 NOSIG
  • 272300Z 21002KT 9999 FEW014 28/27 Q1010 NOSIG

TAF TAF WIDD
Valid from the 28 at 00:00 until the 29 at 00:00 UTC


272300Z 2800/2824 21008KT 9999 SCT014
PROB30
TEMPO 2805/2807 5000 -TSRA FEW013CB
WSJC FIR / Asia



MET'MAP, your aeronautical weather chart ! - Copyright ORBIFLY December 2007 - Disclaimer

ORBIFLY MET'MAP TEAM :

Programming & Development : Alexandra Zaïnal
Original concept : Baudouin d'Aumeries
Technical & hardware support : Manuel Goepfert
Assistance : Marc-Olivier Méhu




SOURCES & CREDITS :

   NOAA       Earth
Advisory